createdAt,value
2023-04-21T00:02:53.188Z,4.60
2023-04-21T00:07:56.562Z,4.43
2023-04-21T00:13:01.148Z,4.60
2023-04-21T00:18:04.994Z,5.28
2023-04-21T00:23:08.308Z,4.70
2023-04-21T00:28:12.931Z,4.53
2023-04-21T00:33:16.194Z,4.18
2023-04-21T00:38:19.475Z,4.40
2023-04-21T00:43:25.890Z,4.35
2023-04-21T00:48:29.301Z,3.92
2023-04-21T00:53:32.517Z,4.30
2023-04-21T00:58:41.401Z,4.22
2023-04-21T01:03:44.837Z,4.65
2023-04-21T01:08:48.175Z,4.03
2023-04-21T01:13:55.704Z,3.75
2023-04-21T01:18:59.376Z,3.92
2023-04-21T01:24:03.965Z,4.13
2023-04-21T01:29:07.294Z,4.00
2023-04-21T01:34:10.558Z,4.32
2023-04-21T01:39:15.166Z,4.30
2023-04-21T01:44:18.420Z,4.30
2023-04-21T01:49:21.695Z,4.38
2023-04-21T01:54:26.468Z,4.45
2023-04-21T01:59:29.774Z,4.32
2023-04-21T02:04:33.365Z,4.07
2023-04-21T02:09:38.081Z,4.65
2023-04-21T02:14:41.313Z,4.70
2023-04-21T02:19:44.645Z,4.20
2023-04-21T02:24:49.338Z,4.20
2023-04-21T02:29:52.567Z,4.60
2023-04-21T02:34:55.850Z,4.60
2023-04-21T02:40:00.504Z,4.28
2023-04-21T02:45:03.786Z,4.40
2023-04-21T02:50:08.139Z,4.50
2023-04-21T02:55:12.863Z,4.00
2023-04-21T03:00:17.921Z,4.55
2023-04-21T03:05:21.360Z,3.83
2023-04-21T03:10:26.162Z,3.90
2023-04-21T03:15:29.735Z,4.55
2023-04-21T03:20:33.189Z,4.47
2023-04-21T03:25:39.762Z,4.80
2023-04-21T03:30:43.009Z,4.55
2023-04-21T03:35:46.324Z,4.28
2023-04-21T03:40:51.527Z,4.43
2023-04-21T03:45:54.846Z,4.32
2023-04-21T03:50:58.103Z,4.75
2023-04-21T03:56:02.687Z,4.88
2023-04-21T04:01:07.843Z,4.30
2023-04-21T04:11:15.423Z,5.03
2023-04-21T04:16:18.966Z,5.22
2023-04-21T04:21:22.199Z,4.90
2023-04-21T04:26:27.017Z,4.30
2023-04-21T04:31:30.773Z,5.25
2023-04-21T04:36:34.200Z,4.88
2023-04-21T04:41:38.896Z,4.15
2023-04-21T04:46:43.155Z,4.68
2023-04-21T04:51:46.359Z,4.60
2023-04-21T04:56:51.158Z,4.78
2023-04-21T05:01:54.465Z,4.50
2023-04-21T05:06:57.737Z,4.45
2023-04-21T05:12:02.809Z,4.15
2023-04-21T05:22:09.245Z,4.45
2023-04-21T05:27:13.931Z,5.22
2023-04-21T05:32:17.188Z,5.60
2023-04-21T05:37:20.527Z,5.30
2023-04-21T05:42:25.056Z,5.40
2023-04-21T05:47:28.363Z,5.15
2023-04-21T05:52:31.635Z,4.75
2023-04-21T05:57:36.386Z,4.75
2023-04-21T06:02:40.077Z,4.78
2023-04-21T06:07:43.475Z,4.25
2023-04-21T06:12:48.185Z,4.40
2023-04-21T06:17:54.765Z,4.30
2023-04-21T06:22:58.146Z,4.53
2023-04-21T06:28:02.872Z,3.80
2023-04-21T06:33:06.974Z,4.13
2023-04-21T06:38:10.579Z,5.07
2023-04-21T06:43:15.221Z,4.90
2023-04-21T06:48:18.504Z,4.60
2023-04-21T06:53:21.969Z,4.93
2023-04-21T06:58:26.777Z,4.35
2023-04-21T07:03:30.161Z,5.50
2023-04-21T07:08:33.478Z,5.10
2023-04-21T07:13:38.104Z,4.40
2023-04-21T07:18:42.240Z,4.22
2023-04-21T07:23:45.549Z,4.60
2023-04-21T07:28:50.828Z,4.35
2023-04-21T07:33:54.095Z,4.00
2023-04-21T07:38:57.482Z,4.15
2023-04-21T07:44:02.055Z,4.35
2023-04-21T07:49:05.347Z,6.57
2023-04-21T07:54:08.607Z,6.57
2023-04-21T07:59:13.278Z,6.07
2023-04-21T08:04:17.205Z,4.72
2023-04-21T08:09:20.803Z,6.07
2023-04-21T08:14:27.177Z,5.25
2023-04-21T08:19:30.568Z,3.65
2023-04-21T08:24:34.151Z,3.80
2023-04-21T08:29:38.783Z,3.90
2023-04-21T08:34:42.051Z,4.63
2023-04-21T08:39:45.299Z,3.42
2023-04-21T08:44:49.955Z,3.80
2023-04-21T08:54:58.164Z,4.37
2023-04-21T09:00:03.970Z,3.87
2023-04-21T09:05:09.085Z,3.50
2023-04-21T09:10:12.752Z,3.78
2023-04-21T09:15:17.487Z,4.00
2023-04-21T09:20:22.538Z,3.92
2023-04-21T09:25:25.877Z,3.78
2023-04-21T09:30:30.496Z,3.67
2023-04-21T09:35:35.714Z,4.07
2023-04-21T09:40:39.066Z,3.95
2023-04-21T09:45:43.683Z,3.67
2023-04-21T09:55:56.753Z,3.97
2023-04-21T10:01:01.928Z,4.38
2023-04-21T10:06:06.003Z,3.95
2023-04-21T10:11:09.863Z,3.38
2023-04-21T10:16:18.189Z,4.13
2023-04-21T10:21:24.479Z,3.65
2023-04-21T10:26:33.862Z,3.75
2023-04-21T10:31:39.698Z,3.42
2023-04-21T10:37:11.888Z,3.78
2023-04-21T10:42:34.852Z,3.30
2023-04-21T10:47:42.977Z,3.72
2023-04-21T10:52:47.923Z,3.03
2023-04-21T10:57:51.139Z,4.05
2023-04-21T11:03:01.413Z,3.92
2023-04-21T11:08:14.620Z,3.97
2023-04-21T11:13:17.825Z,4.45
2023-04-21T11:18:22.351Z,4.13
2023-04-21T11:23:25.465Z,4.65
2023-04-21T11:28:28.608Z,4.07
2023-04-21T11:33:38.019Z,2.40
2023-04-21T11:38:41.927Z,2.42
2023-04-21T11:43:47.499Z,2.80
2023-04-21T11:49:01.759Z,3.58
2023-04-21T11:54:08.010Z,3.20
2023-04-21T11:59:12.588Z,4.07
2023-04-21T12:04:18.258Z,4.60
2023-04-21T12:09:22.660Z,4.32
2023-04-21T12:14:26.963Z,6.35
2023-04-21T12:19:39.774Z,2.65
2023-04-21T12:24:43.487Z,2.30
2023-04-21T12:29:46.754Z,2.50
2023-04-21T12:34:51.552Z,2.47
2023-04-21T12:44:58.103Z,2.03
2023-04-21T12:50:02.845Z,2.00
2023-04-21T13:00:13.146Z,1.80
2023-04-21T13:05:17.819Z,2.42
2023-04-21T13:10:21.355Z,3.88
2023-04-21T13:15:24.583Z,7.82
2023-04-21T13:20:29.244Z,7.97
2023-04-21T13:25:33.557Z,7.22
2023-04-21T13:30:37.193Z,6.25
2023-04-21T13:35:41.827Z,5.85
2023-04-21T13:45:50.901Z,5.00
2023-04-21T13:50:55.910Z,5.35
2023-04-21T13:55:59.652Z,5.25
2023-04-21T14:01:03.980Z,4.90
2023-04-21T14:06:09.206Z,5.40
2023-04-21T14:11:12.450Z,6.80
2023-04-21T14:16:15.969Z,13.52
2023-04-21T14:21:20.691Z,11.95
2023-04-21T14:26:23.939Z,11.55
2023-04-21T14:31:27.206Z,12.43
2023-04-21T14:36:32.331Z,12.18
2023-04-21T14:41:35.613Z,13.63
2023-04-21T14:46:39.366Z,14.77
2023-04-21T14:51:46.319Z,16.35
2023-04-21T14:56:49.804Z,10.57
2023-04-21T15:01:53.066Z,15.07
2023-04-21T15:06:57.774Z,13.07
2023-04-21T15:12:01.022Z,12.70
2023-04-21T15:17:04.430Z,9.45
2023-04-21T15:22:09.284Z,8.82
2023-04-21T15:27:12.520Z,4.47
2023-04-21T15:32:15.779Z,3.40
2023-04-21T15:37:24.237Z,3.28
2023-04-21T15:42:28.979Z,3.25
2023-04-21T15:47:32.231Z,3.60
2023-04-21T15:52:38.321Z,3.80
2023-04-21T15:57:41.628Z,3.53
2023-04-21T16:02:45.065Z,3.78
2023-04-21T16:07:49.919Z,3.63
2023-04-21T16:12:53.196Z,3.53
2023-04-21T16:17:56.547Z,3.38
2023-04-21T16:23:01.385Z,3.00
2023-04-21T16:33:09.446Z,2.60
2023-04-21T16:38:14.527Z,2.28
2023-04-21T16:43:17.966Z,2.42
2023-04-21T16:48:21.223Z,2.25
2023-04-21T16:53:26.859Z,2.15
2023-04-21T16:58:30.100Z,2.60
2023-04-21T17:03:34.040Z,2.40
2023-04-21T17:08:39.061Z,2.13
2023-04-21T17:13:42.386Z,3.20
2023-04-21T17:18:45.631Z,2.95
2023-04-21T17:23:51.485Z,2.72
2023-04-21T17:28:54.742Z,2.58
2023-04-21T17:33:58.458Z,2.95
2023-04-21T17:39:03.083Z,2.30
2023-04-21T17:44:06.343Z,2.38
2023-04-21T17:49:09.600Z,2.13
2023-04-21T17:54:14.211Z,2.10
2023-04-21T17:59:17.669Z,2.03
2023-04-21T18:04:24.368Z,2.60
2023-04-21T18:09:29.358Z,4.72
2023-04-21T18:14:32.600Z,8.02
2023-04-21T18:19:35.926Z,13.10
2023-04-21T18:24:40.954Z,3.15
2023-04-21T18:29:44.176Z,2.63
2023-04-21T18:34:47.572Z,2.50
2023-04-21T18:39:52.287Z,1.80
2023-04-21T18:44:57.982Z,1.90
2023-04-21T18:50:02.095Z,1.85
2023-04-21T18:55:07.696Z,1.42
2023-04-21T19:00:11.831Z,1.75
2023-04-21T19:05:15.122Z,1.73
2023-04-21T19:10:20.392Z,2.00
2023-04-21T19:15:24.094Z,2.05
2023-04-21T19:20:27.443Z,2.03
2023-04-21T19:25:32.354Z,1.98
2023-04-21T19:35:38.654Z,2.10
2023-04-21T19:40:45.107Z,2.33
2023-04-21T19:45:48.509Z,1.90
2023-04-21T19:50:51.988Z,2.13
2023-04-21T19:55:56.700Z,2.72
2023-04-21T20:01:00.165Z,2.55
2023-04-21T20:06:05.155Z,2.95
2023-04-21T20:16:13.197Z,2.20
2023-04-21T20:21:16.466Z,2.00
2023-04-21T20:26:21.198Z,2.42
2023-04-21T20:31:25.732Z,4.25
2023-04-21T20:36:29.490Z,5.03
2023-04-21T20:41:34.262Z,3.50
2023-04-21T20:46:37.841Z,2.80
2023-04-21T20:51:42.912Z,3.30
2023-04-21T21:01:50.630Z,3.20
2023-04-21T21:06:53.903Z,3.55
2023-04-21T21:11:58.669Z,3.50
2023-04-21T21:17:03.013Z,2.65
2023-04-21T21:22:06.750Z,2.53
2023-04-21T21:27:11.644Z,2.63
2023-04-21T21:32:14.928Z,3.10
2023-04-21T21:37:18.150Z,3.45
2023-04-21T21:42:22.895Z,3.20
2023-04-21T21:47:26.329Z,3.58
2023-04-21T21:52:29.734Z,3.03
2023-04-21T21:57:34.590Z,3.35
2023-04-21T22:02:37.890Z,4.32
2023-04-21T22:07:43.278Z,4.00
2023-04-21T22:12:47.974Z,4.40
2023-04-21T22:17:51.275Z,4.50
2023-04-21T22:22:54.865Z,3.92
2023-04-21T22:27:59.804Z,3.35
2023-04-21T22:33:03.238Z,3.00
2023-04-21T22:38:06.610Z,2.70
2023-04-21T22:43:11.396Z,2.72
2023-04-21T22:48:15.218Z,2.70
2023-04-21T22:53:18.440Z,2.67
2023-04-21T22:58:23.293Z,3.15
2023-04-21T23:03:26.746Z,2.55
2023-04-21T23:08:30.194Z,2.42
2023-04-21T23:13:34.864Z,2.30
2023-04-21T23:18:38.137Z,2.38
2023-04-21T23:23:41.438Z,1.90
2023-04-21T23:28:46.151Z,1.90
2023-04-21T23:33:49.462Z,2.33
2023-04-21T23:38:52.718Z,2.35
2023-04-21T23:43:57.355Z,2.30
2023-04-21T23:49:00.932Z,1.95
2023-04-21T23:54:04.203Z,2.20
2023-04-21T23:59:08.809Z,2.15
